sensor_id;sensor_type;location;lat;lon;timestamp;temperature;humidity
3919;DHT22;1974;48.670;8.994;2023-06-24T00:00:48;17.20;99.90
3919;DHT22;1974;48.670;8.994;2023-06-24T00:03:17;17.30;99.90
3919;DHT22;1974;48.670;8.994;2023-06-24T00:05:45;17.40;99.90
3919;DHT22;1974;48.670;8.994;2023-06-24T00:08:14;17.30;99.90
3919;DHT22;1974;48.670;8.994;2023-06-24T00:10:43;17.30;99.90
3919;DHT22;1974;48.670;8.994;2023-06-24T00:13:10;17.10;99.90
3919;DHT22;1974;48.670;8.994;2023-06-24T00:15:36;17.10;99.90
3919;DHT22;1974;48.670;8.994;2023-06-24T00:18:08;17.10;99.90
3919;DHT22;1974;48.670;8.994;2023-06-24T00:20:35;17.10;99.90
3919;DHT22;1974;48.670;8.994;2023-06-24T00:23:03;17.00;99.90
3919;DHT22;1974;48.670;8.994;2023-06-24T00:25:30;16.90;99.90
3919;DHT22;1974;48.670;8.994;2023-06-24T00:27:57;16.90;99.90
3919;DHT22;1974;48.670;8.994;2023-06-24T00:30:25;16.90;99.90
3919;DHT22;1974;48.670;8.994;2023-06-24T00:32:52;16.90;99.90
3919;DHT22;1974;48.670;8.994;2023-06-24T00:35:19;16.90;99.90
3919;DHT22;1974;48.670;8.994;2023-06-24T00:37:45;16.80;99.90
3919;DHT22;1974;48.670;8.994;2023-06-24T00:40:14;16.70;99.90
3919;DHT22;1974;48.670;8.994;2023-06-24T00:42:43;16.80;99.90
3919;DHT22;1974;48.670;8.994;2023-06-24T00:45:11;16.80;99.90
3919;DHT22;1974;48.670;8.994;2023-06-24T00:47:38;16.80;99.90
3919;DHT22;1974;48.670;8.994;2023-06-24T00:50:06;16.70;99.90
3919;DHT22;1974;48.670;8.994;2023-06-24T00:52:32;16.70;99.90
3919;DHT22;1974;48.670;8.994;2023-06-24T00:55:02;16.70;99.90
3919;DHT22;1974;48.670;8.994;2023-06-24T00:57:30;16.70;99.90
3919;DHT22;1974;48.670;8.994;2023-06-24T00:59:59;16.70;99.90
3919;DHT22;1974;48.670;8.994;2023-06-24T01:02:30;16.60;99.90
3919;DHT22;1974;48.670;8.994;2023-06-24T01:04:58;16.70;99.90
3919;DHT22;1974;48.670;8.994;2023-06-24T01:07:24;16.70;99.90
3919;DHT22;1974;48.670;8.994;2023-06-24T01:09:51;16.60;99.90
3919;DHT22;1974;48.670;8.994;2023-06-24T01:12:18;16.50;99.90
3919;DHT22;1974;48.670;8.994;2023-06-24T01:14:46;16.50;99.90
3919;DHT22;1974;48.670;8.994;2023-06-24T01:17:16;16.50;99.90
3919;DHT22;1974;48.670;8.994;2023-06-24T01:19:58;16.50;99.90
3919;DHT22;1974;48.670;8.994;2023-06-24T01:22:54;16.40;99.90
3919;DHT22;1974;48.670;8.994;2023-06-24T01:25:38;16.40;99.90
3919;DHT22;1974;48.670;8.994;2023-06-24T01:31:33;16.30;99.90
3919;DHT22;1974;48.670;8.994;2023-06-24T01:34:06;16.20;99.90
3919;DHT22;1974;48.670;8.994;2023-06-24T01:36:36;16.20;99.90
3919;DHT22;1974;48.670;8.994;2023-06-24T01:39:07;16.20;99.90
3919;DHT22;1974;48.670;8.994;2023-06-24T01:41:40;16.20;99.90
3919;DHT22;1974;48.670;8.994;2023-06-24T01:44:10;16.20;99.90
3919;DHT22;1974;48.670;8.994;2023-06-24T01:46:41;16.10;99.90
3919;DHT22;1974;48.670;8.994;2023-06-24T01:49:12;16.10;99.90
3919;DHT22;1974;48.670;8.994;2023-06-24T01:51:40;16.10;99.90
3919;DHT22;1974;48.670;8.994;2023-06-24T01:54:15;16.00;99.90
3919;DHT22;1974;48.670;8.994;2023-06-24T01:56:45;16.10;99.90
3919;DHT22;1974;48.670;8.994;2023-06-24T01:59:14;16.10;99.90
3919;DHT22;1974;48.670;8.994;2023-06-24T02:01:44;16.00;99.90
3919;DHT22;1974;48.670;8.994;2023-06-24T02:04:12;16.10;99.90
3919;DHT22;1974;48.670;8.994;2023-06-24T02:06:40;16.10;99.90
3919;DHT22;1974;48.670;8.994;2023-06-24T02:09:08;16.10;99.90
3919;DHT22;1974;48.670;8.994;2023-06-24T02:11:37;16.00;99.90
3919;DHT22;1974;48.670;8.994;2023-06-24T02:14:05;15.90;99.90
3919;DHT22;1974;48.670;8.994;2023-06-24T02:16:34;15.90;99.90
3919;DHT22;1974;48.670;8.994;2023-06-24T02:19:03;15.90;99.90
3919;DHT22;1974;48.670;8.994;2023-06-24T02:21:31;15.80;99.90
3919;DHT22;1974;48.670;8.994;2023-06-24T02:23:58;15.80;99.90
3919;DHT22;1974;48.670;8.994;2023-06-24T02:26:26;15.70;99.90
3919;DHT22;1974;48.670;8.994;2023-06-24T02:28:53;15.80;99.90
3919;DHT22;1974;48.670;8.994;2023-06-24T02:31:21;15.70;99.90
3919;DHT22;1974;48.670;8.994;2023-06-24T02:33:47;15.70;99.90
3919;DHT22;1974;48.670;8.994;2023-06-24T02:36:16;15.70;99.90
3919;DHT22;1974;48.670;8.994;2023-06-24T02:38:42;15.60;99.90
3919;DHT22;1974;48.670;8.994;2023-06-24T02:41:10;15.60;99.90
3919;DHT22;1974;48.670;8.994;2023-06-24T02:43:36;15.60;99.90
3919;DHT22;1974;48.670;8.994;2023-06-24T02:46:05;15.60;99.90
3919;DHT22;1974;48.670;8.994;2023-06-24T02:48:32;15.60;99.90
3919;DHT22;1974;48.670;8.994;2023-06-24T02:51:02;15.60;99.90
3919;DHT22;1974;48.670;8.994;2023-06-24T02:53:31;15.50;99.90
3919;DHT22;1974;48.670;8.994;2023-06-24T02:55:59;15.50;99.90
3919;DHT22;1974;48.670;8.994;2023-06-24T02:58:26;15.50;99.90
3919;DHT22;1974;48.670;8.994;2023-06-24T03:00:57;15.50;99.90
3919;DHT22;1974;48.670;8.994;2023-06-24T03:03:25;15.40;99.90
3919;DHT22;1974;48.670;8.994;2023-06-24T03:05:53;15.40;99.90
3919;DHT22;1974;48.670;8.994;2023-06-24T03:08:22;15.40;99.90
3919;DHT22;1974;48.670;8.994;2023-06-24T03:10:51;15.40;99.90
3919;DHT22;1974;48.670;8.994;2023-06-24T03:13:18;15.50;99.90
3919;DHT22;1974;48.670;8.994;2023-06-24T03:15:44;15.50;99.90
3919;DHT22;1974;48.670;8.994;2023-06-24T03:18:11;15.40;99.90
3919;DHT22;1974;48.670;8.994;2023-06-24T03:20:38;15.40;99.90
3919;DHT22;1974;48.670;8.994;2023-06-24T03:23:05;15.40;99.90
3919;DHT22;1974;48.670;8.994;2023-06-24T03:25:32;15.40;99.90
3919;DHT22;1974;48.670;8.994;2023-06-24T03:28:01;15.40;99.90
3919;DHT22;1974;48.670;8.994;2023-06-24T03:30:29;15.40;99.90
3919;DHT22;1974;48.670;8.994;2023-06-24T03:32:56;15.30;99.90
3919;DHT22;1974;48.670;8.994;2023-06-24T03:35:23;15.40;99.90
3919;DHT22;1974;48.670;8.994;2023-06-24T03:37:50;15.50;99.90
3919;DHT22;1974;48.670;8.994;2023-06-24T03:40:17;15.70;99.90
3919;DHT22;1974;48.670;8.994;2023-06-24T03:42:43;15.80;99.90
3919;DHT22;1974;48.670;8.994;2023-06-24T03:45:12;16.00;99.90
3919;DHT22;1974;48.670;8.994;2023-06-24T03:47:38;16.10;99.90
3919;DHT22;1974;48.670;8.994;2023-06-24T03:50:06;16.10;99.90
3919;DHT22;1974;48.670;8.994;2023-06-24T03:52:33;16.20;99.90
3919;DHT22;1974;48.670;8.994;2023-06-24T03:54:59;16.20;99.90
3919;DHT22;1974;48.670;8.994;2023-06-24T03:57:29;16.20;99.90
3919;DHT22;1974;48.670;8.994;2023-06-24T03:59:56;16.30;99.90
3919;DHT22;1974;48.670;8.994;2023-06-24T04:02:24;16.40;99.90
3919;DHT22;1974;48.670;8.994;2023-06-24T04:04:52;16.40;99.90
3919;DHT22;1974;48.670;8.994;2023-06-24T04:07:21;16.40;99.90
3919;DHT22;1974;48.670;8.994;2023-06-24T04:09:54;16.50;99.90
3919;DHT22;1974;48.670;8.994;2023-06-24T04:12:21;16.50;99.90
3919;DHT22;1974;48.670;8.994;2023-06-24T04:14:48;16.60;99.90
3919;DHT22;1974;48.670;8.994;2023-06-24T04:17:15;16.60;99.90
3919;DHT22;1974;48.670;8.994;2023-06-24T04:19:43;16.70;99.90
3919;DHT22;1974;48.670;8.994;2023-06-24T04:22:10;16.70;99.90
3919;DHT22;1974;48.670;8.994;2023-06-24T04:24:36;16.70;99.90
3919;DHT22;1974;48.670;8.994;2023-06-24T04:27:07;16.70;99.90
3919;DHT22;1974;48.670;8.994;2023-06-24T04:29:34;16.70;99.90
3919;DHT22;1974;48.670;8.994;2023-06-24T04:32:01;16.80;99.90
3919;DHT22;1974;48.670;8.994;2023-06-24T04:34:27;16.80;99.90
3919;DHT22;1974;48.670;8.994;2023-06-24T04:36:55;16.80;99.90
3919;DHT22;1974;48.670;8.994;2023-06-24T04:39:22;16.80;99.90
3919;DHT22;1974;48.670;8.994;2023-06-24T04:41:49;16.90;99.90
3919;DHT22;1974;48.670;8.994;2023-06-24T04:44:16;16.90;99.90
3919;DHT22;1974;48.670;8.994;2023-06-24T04:46:42;16.90;99.90
3919;DHT22;1974;48.670;8.994;2023-06-24T04:49:09;16.90;99.90
3919;DHT22;1974;48.670;8.994;2023-06-24T04:51:36;16.90;99.90
3919;DHT22;1974;48.670;8.994;2023-06-24T04:54:04;17.00;99.90
3919;DHT22;1974;48.670;8.994;2023-06-24T04:56:31;17.00;99.90
3919;DHT22;1974;48.670;8.994;2023-06-24T04:58:58;17.00;99.90
3919;DHT22;1974;48.670;8.994;2023-06-24T05:01:24;17.10;99.90
3919;DHT22;1974;48.670;8.994;2023-06-24T05:03:51;17.00;99.90
3919;DHT22;1974;48.670;8.994;2023-06-24T05:06:18;17.00;99.90
3919;DHT22;1974;48.670;8.994;2023-06-24T05:08:45;17.10;99.90
3919;DHT22;1974;48.670;8.994;2023-06-24T05:11:13;17.10;99.90
3919;DHT22;1974;48.670;8.994;2023-06-24T05:13:40;17.20;99.90
3919;DHT22;1974;48.670;8.994;2023-06-24T05:16:06;17.30;99.90
3919;DHT22;1974;48.670;8.994;2023-06-24T05:18:33;17.40;99.90
3919;DHT22;1974;48.670;8.994;2023-06-24T05:21:00;17.40;99.90
3919;DHT22;1974;48.670;8.994;2023-06-24T05:23:27;17.50;99.90
3919;DHT22;1974;48.670;8.994;2023-06-24T05:25:54;17.60;99.90
3919;DHT22;1974;48.670;8.994;2023-06-24T05:28:22;17.70;99.90
3919;DHT22;1974;48.670;8.994;2023-06-24T05:30:48;17.80;99.90
3919;DHT22;1974;48.670;8.994;2023-06-24T05:33:15;17.70;99.90
3919;DHT22;1974;48.670;8.994;2023-06-24T05:35:43;17.70;99.90
3919;DHT22;1974;48.670;8.994;2023-06-24T05:38:10;17.90;99.90
3919;DHT22;1974;48.670;8.994;2023-06-24T05:40:36;17.90;99.90
3919;DHT22;1974;48.670;8.994;2023-06-24T05:43:03;17.90;99.90
3919;DHT22;1974;48.670;8.994;2023-06-24T05:45:31;18.20;99.90
3919;DHT22;1974;48.670;8.994;2023-06-24T05:47:58;18.20;99.90
3919;DHT22;1974;48.670;8.994;2023-06-24T05:50:25;18.20;99.90
3919;DHT22;1974;48.670;8.994;2023-06-24T05:52:51;18.30;99.90
3919;DHT22;1974;48.670;8.994;2023-06-24T05:55:18;18.40;99.90
3919;DHT22;1974;48.670;8.994;2023-06-24T05:57:45;18.40;99.90
3919;DHT22;1974;48.670;8.994;2023-06-24T06:00:13;18.60;99.90
3919;DHT22;1974;48.670;8.994;2023-06-24T06:02:41;18.60;99.90
3919;DHT22;1974;48.670;8.994;2023-06-24T06:05:08;18.80;99.90
3919;DHT22;1974;48.670;8.994;2023-06-24T06:07:35;18.90;99.90
3919;DHT22;1974;48.670;8.994;2023-06-24T06:10:04;19.00;99.90
3919;DHT22;1974;48.670;8.994;2023-06-24T06:12:31;19.20;99.90
3919;DHT22;1974;48.670;8.994;2023-06-24T06:14:58;19.50;99.90
3919;DHT22;1974;48.670;8.994;2023-06-24T06:17:25;19.70;99.90
3919;DHT22;1974;48.670;8.994;2023-06-24T06:19:53;19.90;99.90
3919;DHT22;1974;48.670;8.994;2023-06-24T06:22:19;20.10;99.90
3919;DHT22;1974;48.670;8.994;2023-06-24T06:24:46;20.40;99.90
3919;DHT22;1974;48.670;8.994;2023-06-24T06:27:13;20.60;99.90
3919;DHT22;1974;48.670;8.994;2023-06-24T06:29:40;20.80;99.90
3919;DHT22;1974;48.670;8.994;2023-06-24T06:32:07;21.20;99.90
3919;DHT22;1974;48.670;8.994;2023-06-24T06:34:34;21.60;99.90
3919;DHT22;1974;48.670;8.994;2023-06-24T06:37:04;21.90;99.90
3919;DHT22;1974;48.670;8.994;2023-06-24T06:39:30;22.30;99.90
3919;DHT22;1974;48.670;8.994;2023-06-24T06:41:57;22.60;99.90
3919;DHT22;1974;48.670;8.994;2023-06-24T06:44:24;23.10;99.90
3919;DHT22;1974;48.670;8.994;2023-06-24T06:46:51;23.40;99.90
3919;DHT22;1974;48.670;8.994;2023-06-24T06:49:17;23.70;99.90
3919;DHT22;1974;48.670;8.994;2023-06-24T06:51:44;23.70;99.90
3919;DHT22;1974;48.670;8.994;2023-06-24T06:54:12;23.60;99.90
3919;DHT22;1974;48.670;8.994;2023-06-24T06:56:39;23.50;99.90
3919;DHT22;1974;48.670;8.994;2023-06-24T06:59:06;23.50;99.90
3919;DHT22;1974;48.670;8.994;2023-06-24T07:01:33;23.50;99.90
3919;DHT22;1974;48.670;8.994;2023-06-24T07:03:59;23.40;99.90
3919;DHT22;1974;48.670;8.994;2023-06-24T07:06:26;23.40;99.90
3919;DHT22;1974;48.670;8.994;2023-06-24T07:08:53;23.50;99.90
3919;DHT22;1974;48.670;8.994;2023-06-24T07:11:21;23.40;99.90
3919;DHT22;1974;48.670;8.994;2023-06-24T07:13:48;23.50;99.90
3919;DHT22;1974;48.670;8.994;2023-06-24T07:16:16;23.50;99.90
3919;DHT22;1974;48.670;8.994;2023-06-24T07:18:43;23.50;99.90
3919;DHT22;1974;48.670;8.994;2023-06-24T07:21:10;23.70;99.90
3919;DHT22;1974;48.670;8.994;2023-06-24T07:23:37;23.80;99.90
3919;DHT22;1974;48.670;8.994;2023-06-24T07:26:03;24.00;99.90
3919;DHT22;1974;48.670;8.994;2023-06-24T07:28:31;24.20;99.90
3919;DHT22;1974;48.670;8.994;2023-06-24T07:30:58;24.30;99.90
3919;DHT22;1974;48.670;8.994;2023-06-24T07:33:25;24.40;99.90
3919;DHT22;1974;48.670;8.994;2023-06-24T07:35:52;24.70;99.90
3919;DHT22;1974;48.670;8.994;2023-06-24T07:38:19;24.80;99.90
3919;DHT22;1974;48.670;8.994;2023-06-24T07:40:45;24.90;99.90
3919;DHT22;1974;48.670;8.994;2023-06-24T07:43:12;25.00;99.90
3919;DHT22;1974;48.670;8.994;2023-06-24T07:45:40;25.10;99.90
3919;DHT22;1974;48.670;8.994;2023-06-24T07:48:07;25.20;99.90
3919;DHT22;1974;48.670;8.994;2023-06-24T07:50:34;25.20;99.90
3919;DHT22;1974;48.670;8.994;2023-06-24T07:53:01;25.30;99.50
3919;DHT22;1974;48.670;8.994;2023-06-24T07:55:28;25.50;99.30
3919;DHT22;1974;48.670;8.994;2023-06-24T07:57:55;25.70;98.60
3919;DHT22;1974;48.670;8.994;2023-06-24T08:00:24;25.80;98.00
3919;DHT22;1974;48.670;8.994;2023-06-24T08:02:52;25.90;98.10
3919;DHT22;1974;48.670;8.994;2023-06-24T08:05:19;26.20;97.50
3919;DHT22;1974;48.670;8.994;2023-06-24T08:07:46;26.50;96.80
3919;DHT22;1974;48.670;8.994;2023-06-24T08:10:12;26.50;95.30
3919;DHT22;1974;48.670;8.994;2023-06-24T08:12:39;26.70;95.40
3919;DHT22;1974;48.670;8.994;2023-06-24T08:15:07;27.30;95.80
3919;DHT22;1974;48.670;8.994;2023-06-24T08:17:34;27.90;94.10
3919;DHT22;1974;48.670;8.994;2023-06-24T08:20:02;28.50;93.50
3919;DHT22;1974;48.670;8.994;2023-06-24T08:22:29;29.30;92.20
3919;DHT22;1974;48.670;8.994;2023-06-24T08:24:57;30.10;88.70
3919;DHT22;1974;48.670;8.994;2023-06-24T08:27:24;30.40;83.70
3919;DHT22;1974;48.670;8.994;2023-06-24T08:29:51;31.00;82.00
3919;DHT22;1974;48.670;8.994;2023-06-24T08:32:18;31.30;78.80
3919;DHT22;1974;48.670;8.994;2023-06-24T08:34:44;31.30;76.90
3919;DHT22;1974;48.670;8.994;2023-06-24T08:37:13;30.80;77.30
3919;DHT22;1974;48.670;8.994;2023-06-24T08:39:40;30.60;76.20
3919;DHT22;1974;48.670;8.994;2023-06-24T08:42:07;30.10;73.90
3919;DHT22;1974;48.670;8.994;2023-06-24T08:44:34;29.60;73.90
3919;DHT22;1974;48.670;8.994;2023-06-24T08:47:00;29.30;73.50
3919;DHT22;1974;48.670;8.994;2023-06-24T08:49:30;29.10;73.20
3919;DHT22;1974;48.670;8.994;2023-06-24T08:52:00;28.90;74.30
3919;DHT22;1974;48.670;8.994;2023-06-24T08:54:30;28.90;74.60
3919;DHT22;1974;48.670;8.994;2023-06-24T08:56:59;29.00;75.00
3919;DHT22;1974;48.670;8.994;2023-06-24T08:59:27;29.50;73.70
3919;DHT22;1974;48.670;8.994;2023-06-24T09:01:53;29.80;72.20
3919;DHT22;1974;48.670;8.994;2023-06-24T09:04:20;29.90;73.00
3919;DHT22;1974;48.670;8.994;2023-06-24T09:06:48;29.60;69.60
3919;DHT22;1974;48.670;8.994;2023-06-24T09:09:18;29.20;67.40
3919;DHT22;1974;48.670;8.994;2023-06-24T09:11:53;29.00;68.80
3919;DHT22;1974;48.670;8.994;2023-06-24T09:14:20;28.60;70.10
3919;DHT22;1974;48.670;8.994;2023-06-24T09:16:51;28.30;69.00
3919;DHT22;1974;48.670;8.994;2023-06-24T09:19:20;28.10;70.00
3919;DHT22;1974;48.670;8.994;2023-06-24T09:21:47;27.70;70.00
3919;DHT22;1974;48.670;8.994;2023-06-24T09:24:14;27.40;71.50
3919;DHT22;1974;48.670;8.994;2023-06-24T09:26:43;27.10;72.50
3919;DHT22;1974;48.670;8.994;2023-06-24T09:29:12;27.20;73.50
3919;DHT22;1974;48.670;8.994;2023-06-24T09:31:47;27.30;74.00
3919;DHT22;1974;48.670;8.994;2023-06-24T09:34:14;27.30;71.60
3919;DHT22;1974;48.670;8.994;2023-06-24T09:36:42;27.20;70.60
3919;DHT22;1974;48.670;8.994;2023-06-24T09:39:10;27.20;71.60
3919;DHT22;1974;48.670;8.994;2023-06-24T09:41:40;27.30;72.20
3919;DHT22;1974;48.670;8.994;2023-06-24T09:44:08;27.20;71.70
3919;DHT22;1974;48.670;8.994;2023-06-24T09:46:38;27.30;72.40
3919;DHT22;1974;48.670;8.994;2023-06-24T09:49:05;27.40;73.70
3919;DHT22;1974;48.670;8.994;2023-06-24T09:51:33;27.50;72.20
3919;DHT22;1974;48.670;8.994;2023-06-24T09:54:04;27.50;71.00
3919;DHT22;1974;48.670;8.994;2023-06-24T09:56:34;27.50;71.70
3919;DHT22;1974;48.670;8.994;2023-06-24T09:59:03;27.50;70.10
3919;DHT22;1974;48.670;8.994;2023-06-24T10:01:32;27.40;69.10
3919;DHT22;1974;48.670;8.994;2023-06-24T10:04:00;27.40;67.60
3919;DHT22;1974;48.670;8.994;2023-06-24T10:06:27;27.40;69.10
3919;DHT22;1974;48.670;8.994;2023-06-24T10:08:55;27.50;67.10
3919;DHT22;1974;48.670;8.994;2023-06-24T10:11:21;27.40;68.00
3919;DHT22;1974;48.670;8.994;2023-06-24T10:13:48;27.50;68.90
3919;DHT22;1974;48.670;8.994;2023-06-24T10:16:16;27.50;67.90
3919;DHT22;1974;48.670;8.994;2023-06-24T10:18:44;27.10;68.60
3919;DHT22;1974;48.670;8.994;2023-06-24T10:21:13;26.80;70.60
3919;DHT22;1974;48.670;8.994;2023-06-24T10:23:43;26.70;71.40
3919;DHT22;1974;48.670;8.994;2023-06-24T10:26:22;27.00;72.30
3919;DHT22;1974;48.670;8.994;2023-06-24T10:29:09;27.10;72.60
3919;DHT22;1974;48.670;8.994;2023-06-24T10:31:56;27.10;70.80
3919;DHT22;1974;48.670;8.994;2023-06-24T10:34:32;27.10;68.80
3919;DHT22;1974;48.670;8.994;2023-06-24T10:37:02;27.10;70.30
3919;DHT22;1974;48.670;8.994;2023-06-24T10:39:36;27.20;72.10
3919;DHT22;1974;48.670;8.994;2023-06-24T10:42:30;27.50;71.40
3919;DHT22;1974;48.670;8.994;2023-06-24T10:45:00;27.80;70.50
3919;DHT22;1974;48.670;8.994;2023-06-24T10:47:28;28.10;70.70
3919;DHT22;1974;48.670;8.994;2023-06-24T10:49:55;28.40;69.10
3919;DHT22;1974;48.670;8.994;2023-06-24T10:52:23;28.60;67.20
3919;DHT22;1974;48.670;8.994;2023-06-24T10:54:51;28.60;64.10
3919;DHT22;1974;48.670;8.994;2023-06-24T10:57:22;28.40;63.90
3919;DHT22;1974;48.670;8.994;2023-06-24T10:59:50;28.40;63.80
3919;DHT22;1974;48.670;8.994;2023-06-24T11:02:19;28.40;63.40
3919;DHT22;1974;48.670;8.994;2023-06-24T11:04:47;28.90;64.40
3919;DHT22;1974;48.670;8.994;2023-06-24T11:07:16;29.30;62.20
3919;DHT22;1974;48.670;8.994;2023-06-24T11:09:49;29.10;62.00
3919;DHT22;1974;48.670;8.994;2023-06-24T11:12:17;28.80;61.90
3919;DHT22;1974;48.670;8.994;2023-06-24T11:14:44;28.60;64.10
3919;DHT22;1974;48.670;8.994;2023-06-24T11:17:11;28.60;64.40
3919;DHT22;1974;48.670;8.994;2023-06-24T11:19:38;28.10;63.00
3919;DHT22;1974;48.670;8.994;2023-06-24T11:22:06;27.90;63.40
3919;DHT22;1974;48.670;8.994;2023-06-24T11:24:34;27.50;63.10
3919;DHT22;1974;48.670;8.994;2023-06-24T11:27:04;27.20;64.10
3919;DHT22;1974;48.670;8.994;2023-06-24T11:29:32;27.00;64.10
3919;DHT22;1974;48.670;8.994;2023-06-24T11:32:00;27.00;63.80
3919;DHT22;1974;48.670;8.994;2023-06-24T11:34:27;27.00;64.90
3919;DHT22;1974;48.670;8.994;2023-06-24T11:36:54;27.00;64.80
3919;DHT22;1974;48.670;8.994;2023-06-24T11:39:21;27.20;63.70
3919;DHT22;1974;48.670;8.994;2023-06-24T11:41:48;27.40;62.40
3919;DHT22;1974;48.670;8.994;2023-06-24T11:44:18;27.40;63.50
3919;DHT22;1974;48.670;8.994;2023-06-24T11:46:45;27.40;63.60
3919;DHT22;1974;48.670;8.994;2023-06-24T11:49:12;27.30;63.50
3919;DHT22;1974;48.670;8.994;2023-06-24T11:51:46;27.20;64.40
3919;DHT22;1974;48.670;8.994;2023-06-24T11:54:14;27.10;63.20
3919;DHT22;1974;48.670;8.994;2023-06-24T11:56:43;27.00;63.40
3919;DHT22;1974;48.670;8.994;2023-06-24T11:59:16;26.90;64.10
3919;DHT22;1974;48.670;8.994;2023-06-24T12:01:45;27.00;64.90
3919;DHT22;1974;48.670;8.994;2023-06-24T12:04:12;27.00;63.50
3919;DHT22;1974;48.670;8.994;2023-06-24T12:06:39;27.00;62.30
3919;DHT22;1974;48.670;8.994;2023-06-24T12:09:06;27.00;63.40
3919;DHT22;1974;48.670;8.994;2023-06-24T12:11:33;26.90;64.20
3919;DHT22;1974;48.670;8.994;2023-06-24T12:14:00;26.90;62.70
3919;DHT22;1974;48.670;8.994;2023-06-24T12:16:27;26.70;62.70
3919;DHT22;1974;48.670;8.994;2023-06-24T12:18:55;26.70;64.20
3919;DHT22;1974;48.670;8.994;2023-06-24T12:21:22;26.70;62.00
3919;DHT22;1974;48.670;8.994;2023-06-24T12:23:49;26.60;63.00
3919;DHT22;1974;48.670;8.994;2023-06-24T12:26:16;26.50;63.30
3919;DHT22;1974;48.670;8.994;2023-06-24T12:28:43;26.40;63.30
3919;DHT22;1974;48.670;8.994;2023-06-24T12:31:11;26.20;62.90
3919;DHT22;1974;48.670;8.994;2023-06-24T12:33:37;26.00;63.30
3919;DHT22;1974;48.670;8.994;2023-06-24T12:36:06;26.00;64.20
3919;DHT22;1974;48.670;8.994;2023-06-24T12:38:32;25.90;64.00
3919;DHT22;1974;48.670;8.994;2023-06-24T12:41:01;25.90;63.00
3919;DHT22;1974;48.670;8.994;2023-06-24T12:43:27;25.90;64.30
3919;DHT22;1974;48.670;8.994;2023-06-24T12:45:54;25.80;62.80
3919;DHT22;1974;48.670;8.994;2023-06-24T12:48:21;25.70;63.10
3919;DHT22;1974;48.670;8.994;2023-06-24T12:50:48;25.70;63.90
3919;DHT22;1974;48.670;8.994;2023-06-24T12:53:20;25.70;64.30
3919;DHT22;1974;48.670;8.994;2023-06-24T12:55:46;25.70;63.80
3919;DHT22;1974;48.670;8.994;2023-06-24T12:58:13;25.70;63.70
3919;DHT22;1974;48.670;8.994;2023-06-24T13:00:41;25.70;64.60
3919;DHT22;1974;48.670;8.994;2023-06-24T13:03:07;25.90;63.70
3919;DHT22;1974;48.670;8.994;2023-06-24T13:05:34;25.90;61.70
3919;DHT22;1974;48.670;8.994;2023-06-24T13:08:01;25.70;61.60
3919;DHT22;1974;48.670;8.994;2023-06-24T13:10:29;25.70;60.80
3919;DHT22;1974;48.670;8.994;2023-06-24T13:12:56;25.60;62.30
3919;DHT22;1974;48.670;8.994;2023-06-24T13:15:22;25.60;62.80
3919;DHT22;1974;48.670;8.994;2023-06-24T13:17:50;25.50;62.20
3919;DHT22;1974;48.670;8.994;2023-06-24T13:20:16;25.40;63.30
3919;DHT22;1974;48.670;8.994;2023-06-24T13:22:43;25.50;65.80
3919;DHT22;1974;48.670;8.994;2023-06-24T13:25:10;25.50;67.30
3919;DHT22;1974;48.670;8.994;2023-06-24T13:27:38;25.50;63.30
3919;DHT22;1974;48.670;8.994;2023-06-24T13:30:06;25.50;63.30
3919;DHT22;1974;48.670;8.994;2023-06-24T13:32:33;25.60;63.30
3919;DHT22;1974;48.670;8.994;2023-06-24T13:35:00;25.60;62.80
3919;DHT22;1974;48.670;8.994;2023-06-24T13:37:26;25.60;63.00
3919;DHT22;1974;48.670;8.994;2023-06-24T13:39:53;25.60;63.60
3919;DHT22;1974;48.670;8.994;2023-06-24T13:42:20;25.60;63.80
3919;DHT22;1974;48.670;8.994;2023-06-24T13:44:48;25.50;63.60
3919;DHT22;1974;48.670;8.994;2023-06-24T13:47:14;25.50;64.40
3919;DHT22;1974;48.670;8.994;2023-06-24T13:49:41;25.40;63.70
3919;DHT22;1974;48.670;8.994;2023-06-24T13:52:08;25.40;64.20
3919;DHT22;1974;48.670;8.994;2023-06-24T13:54:35;25.40;64.00
3919;DHT22;1974;48.670;8.994;2023-06-24T13:57:01;25.40;64.80
3919;DHT22;1974;48.670;8.994;2023-06-24T13:59:28;25.50;63.00
3919;DHT22;1974;48.670;8.994;2023-06-24T14:01:57;25.50;63.50
3919;DHT22;1974;48.670;8.994;2023-06-24T14:04:24;25.50;63.40
3919;DHT22;1974;48.670;8.994;2023-06-24T14:06:50;25.40;63.70
3919;DHT22;1974;48.670;8.994;2023-06-24T14:09:19;25.40;64.10
3919;DHT22;1974;48.670;8.994;2023-06-24T14:11:45;25.20;64.10
3919;DHT22;1974;48.670;8.994;2023-06-24T14:14:12;25.20;68.00
3919;DHT22;1974;48.670;8.994;2023-06-24T14:16:39;25.20;64.30
3919;DHT22;1974;48.670;8.994;2023-06-24T14:19:07;25.30;63.50
3919;DHT22;1974;48.670;8.994;2023-06-24T14:21:34;25.20;64.00
3919;DHT22;1974;48.670;8.994;2023-06-24T14:24:03;25.20;64.30
3919;DHT22;1974;48.670;8.994;2023-06-24T14:26:30;25.30;64.10
3919;DHT22;1974;48.670;8.994;2023-06-24T14:28:57;25.30;63.60
3919;DHT22;1974;48.670;8.994;2023-06-24T14:31:24;25.40;63.40
3919;DHT22;1974;48.670;8.994;2023-06-24T14:33:50;25.30;64.20
3919;DHT22;1974;48.670;8.994;2023-06-24T14:36:18;25.40;64.00
3919;DHT22;1974;48.670;8.994;2023-06-24T14:38:45;25.40;63.60
3919;DHT22;1974;48.670;8.994;2023-06-24T14:41:12;25.50;63.30
3919;DHT22;1974;48.670;8.994;2023-06-24T14:43:39;25.40;63.30
3919;DHT22;1974;48.670;8.994;2023-06-24T14:46:05;25.50;64.00
3919;DHT22;1974;48.670;8.994;2023-06-24T14:48:32;25.50;63.70
3919;DHT22;1974;48.670;8.994;2023-06-24T14:50:59;25.40;63.80
3919;DHT22;1974;48.670;8.994;2023-06-24T14:53:27;25.40;63.30
3919;DHT22;1974;48.670;8.994;2023-06-24T14:55:54;25.40;62.70
3919;DHT22;1974;48.670;8.994;2023-06-24T14:58:20;25.40;63.30
3919;DHT22;1974;48.670;8.994;2023-06-24T15:00:47;25.30;63.00
3919;DHT22;1974;48.670;8.994;2023-06-24T15:03:14;25.40;63.70
3919;DHT22;1974;48.670;8.994;2023-06-24T15:05:41;25.20;63.80
3919;DHT22;1974;48.670;8.994;2023-06-24T15:08:07;25.20;64.00
3919;DHT22;1974;48.670;8.994;2023-06-24T15:10:35;25.20;64.00
3919;DHT22;1974;48.670;8.994;2023-06-24T15:13:02;25.10;64.10
3919;DHT22;1974;48.670;8.994;2023-06-24T15:15:30;25.10;64.00
3919;DHT22;1974;48.670;8.994;2023-06-24T15:17:57;25.20;64.40
3919;DHT22;1974;48.670;8.994;2023-06-24T15:20:25;25.30;64.90
3919;DHT22;1974;48.670;8.994;2023-06-24T15:22:52;25.40;64.20
3919;DHT22;1974;48.670;8.994;2023-06-24T15:25:19;25.50;62.90
3919;DHT22;1974;48.670;8.994;2023-06-24T15:27:47;25.50;62.10
3919;DHT22;1974;48.670;8.994;2023-06-24T15:30:14;25.50;62.30
3919;DHT22;1974;48.670;8.994;2023-06-24T15:32:40;25.40;63.10
3919;DHT22;1974;48.670;8.994;2023-06-24T15:35:08;25.30;63.70
3919;DHT22;1974;48.670;8.994;2023-06-24T15:37:35;25.20;64.30
3919;DHT22;1974;48.670;8.994;2023-06-24T15:40:01;25.20;65.10
3919;DHT22;1974;48.670;8.994;2023-06-24T15:42:28;25.20;65.30
3919;DHT22;1974;48.670;8.994;2023-06-24T15:44:56;25.30;64.50
3919;DHT22;1974;48.670;8.994;2023-06-24T15:47:23;25.40;63.60
3919;DHT22;1974;48.670;8.994;2023-06-24T15:49:50;25.40;64.00
3919;DHT22;1974;48.670;8.994;2023-06-24T15:52:17;25.50;64.10
3919;DHT22;1974;48.670;8.994;2023-06-24T15:54:44;25.50;63.60
3919;DHT22;1974;48.670;8.994;2023-06-24T15:57:11;25.50;63.60
3919;DHT22;1974;48.670;8.994;2023-06-24T15:59:37;25.40;62.80
3919;DHT22;1974;48.670;8.994;2023-06-24T16:02:06;25.40;63.00
3919;DHT22;1974;48.670;8.994;2023-06-24T16:04:33;25.30;64.10
3919;DHT22;1974;48.670;8.994;2023-06-24T16:06:59;25.30;64.00
3919;DHT22;1974;48.670;8.994;2023-06-24T16:09:27;25.40;63.40